createdAt,value
2022-08-30T00:01:29.413Z,101729.00
2022-08-30T00:03:58.594Z,101737.00
2022-08-30T00:06:28.700Z,101731.00
2022-08-30T00:08:57.409Z,101721.00
2022-08-30T00:11:28.185Z,101722.00
2022-08-30T00:13:58.184Z,101714.00
2022-08-30T00:16:26.870Z,101711.00
2022-08-30T00:18:55.334Z,101708.00
2022-08-30T00:21:24.003Z,101714.00
2022-08-30T00:23:51.220Z,101716.00
2022-08-30T00:26:18.604Z,101710.00
2022-08-30T00:28:45.885Z,101713.00
2022-08-30T00:31:13.552Z,101720.00
2022-08-30T00:33:42.733Z,101707.00
2022-08-30T00:36:09.963Z,101709.00
2022-08-30T00:38:37.395Z,101705.00
2022-08-30T00:41:04.950Z,101705.00
2022-08-30T00:43:36.718Z,101714.00
2022-08-30T00:46:08.740Z,101716.00
2022-08-30T00:49:51.025Z,101714.00
2022-08-30T00:52:21.681Z,101714.00
2022-08-30T00:54:51.414Z,101712.00
2022-08-30T00:57:19.517Z,101714.00
2022-08-30T00:59:50.076Z,101711.00
2022-08-30T01:02:23.738Z,101718.00
2022-08-30T01:04:52.768Z,101710.00
2022-08-30T01:07:19.965Z,101711.00
2022-08-30T01:09:47.314Z,101707.00
2022-08-30T01:12:14.880Z,101710.00
2022-08-30T01:14:46.079Z,101710.00
2022-08-30T01:17:15.495Z,101705.00
2022-08-30T01:20:07.200Z,101710.00
2022-08-30T01:22:49.291Z,101711.00
2022-08-30T01:25:30.412Z,101711.00
2022-08-30T01:28:03.573Z,101712.00
2022-08-30T01:30:32.597Z,101712.00
2022-08-30T01:33:04.247Z,101711.00
2022-08-30T01:35:39.243Z,101718.00
2022-08-30T01:38:06.711Z,101724.00
2022-08-30T01:40:34.224Z,101723.00
2022-08-30T01:43:01.409Z,101722.00
2022-08-30T01:45:28.983Z,101719.00
2022-08-30T01:47:56.302Z,101712.00
2022-08-30T01:50:45.778Z,101713.00
2022-08-30T01:53:13.245Z,101719.00
2022-08-30T01:55:42.237Z,101717.00
2022-08-30T01:58:09.536Z,101718.00
2022-08-30T02:00:36.739Z,101723.00
2022-08-30T02:03:04.552Z,101710.00
2022-08-30T02:05:32.210Z,101717.00
2022-08-30T02:08:00.738Z,101720.00
2022-08-30T02:10:28.841Z,101716.00
2022-08-30T02:12:56.073Z,101702.00
2022-08-30T02:15:23.330Z,101718.00
2022-08-30T02:17:50.554Z,101707.00
2022-08-30T02:20:18.010Z,101694.00
2022-08-30T02:22:49.434Z,101702.00
2022-08-30T02:25:20.393Z,101702.00
2022-08-30T02:27:48.816Z,101701.00
2022-08-30T02:30:16.240Z,101711.00
2022-08-30T02:32:43.458Z,101699.00
2022-08-30T02:35:10.895Z,101706.00
2022-08-30T02:37:38.178Z,101699.00
2022-08-30T02:40:07.780Z,101696.00
2022-08-30T02:42:35.847Z,101692.00
2022-08-30T02:45:03.963Z,101689.00
2022-08-30T02:47:31.485Z,101684.00
2022-08-30T02:49:58.747Z,101691.00
2022-08-30T02:52:27.972Z,101693.00
2022-08-30T02:54:55.427Z,101693.00
2022-08-30T02:57:22.980Z,101691.00
2022-08-30T02:59:50.659Z,101688.00
2022-08-30T03:02:18.536Z,101690.00
2022-08-30T03:04:45.979Z,101683.00
2022-08-30T03:07:13.525Z,101695.00
2022-08-30T03:09:41.309Z,101688.00
2022-08-30T03:12:10.159Z,101686.00
2022-08-30T03:14:39.655Z,101685.00
2022-08-30T03:17:15.374Z,101684.00
2022-08-30T03:19:44.229Z,101686.00
2022-08-30T03:22:12.682Z,101682.00
2022-08-30T03:24:40.635Z,101690.00
2022-08-30T03:27:08.439Z,101686.00
2022-08-30T03:29:35.908Z,101683.00
2022-08-30T03:32:04.191Z,101690.00
2022-08-30T03:34:31.580Z,101691.00
2022-08-30T03:37:01.405Z,101695.00
2022-08-30T03:39:28.797Z,101696.00
2022-08-30T03:41:56.116Z,101694.00
2022-08-30T03:44:23.623Z,101691.00
2022-08-30T03:46:51.983Z,101691.00
2022-08-30T03:49:21.081Z,101687.00
2022-08-30T03:51:48.883Z,101690.00
2022-08-30T03:54:16.449Z,101685.00
2022-08-30T03:56:43.879Z,101685.00
2022-08-30T03:59:11.237Z,101686.00
2022-08-30T04:01:38.502Z,101690.00
2022-08-30T04:04:05.854Z,101692.00
2022-08-30T04:06:33.530Z,101684.00
2022-08-30T04:09:01.156Z,101688.00
2022-08-30T04:11:28.521Z,101691.00
2022-08-30T04:13:57.015Z,101690.00
2022-08-30T04:16:25.678Z,101695.00
2022-08-30T04:18:53.185Z,101692.00
2022-08-30T04:21:20.388Z,101696.00
2022-08-30T04:23:47.639Z,101695.00
2022-08-30T04:26:15.625Z,101696.00
2022-08-30T04:28:43.002Z,101692.00
2022-08-30T04:31:16.656Z,101695.00
2022-08-30T04:33:44.811Z,101692.00
2022-08-30T04:36:13.934Z,101692.00
2022-08-30T04:38:42.546Z,101689.00
2022-08-30T04:41:16.468Z,101699.00
2022-08-30T04:43:50.714Z,101700.00
2022-08-30T04:46:19.430Z,101699.00
2022-08-30T04:48:47.922Z,101700.00
2022-08-30T04:51:17.820Z,101712.00
2022-08-30T04:53:46.356Z,101712.00
2022-08-30T04:56:22.499Z,101692.00
2022-08-30T04:58:54.327Z,101710.00
2022-08-30T05:01:29.327Z,101707.00
2022-08-30T05:03:58.697Z,101704.00
2022-08-30T05:06:31.214Z,101709.00
2022-08-30T05:09:00.667Z,101710.00
2022-08-30T05:11:28.947Z,101717.00
2022-08-30T05:13:56.506Z,101714.00
2022-08-30T05:16:23.865Z,101722.00
2022-08-30T05:18:52.911Z,101714.00
2022-08-30T05:21:26.712Z,101722.00
2022-08-30T05:23:57.042Z,101726.00
2022-08-30T05:26:29.293Z,101722.00
2022-08-30T05:28:57.807Z,101730.00
2022-08-30T05:31:33.822Z,101727.00
2022-08-30T05:34:02.096Z,101732.00
2022-08-30T05:36:33.719Z,101731.00
2022-08-30T05:39:01.344Z,101733.00
2022-08-30T05:41:34.566Z,101736.00
2022-08-30T05:44:07.349Z,101735.00
2022-08-30T05:46:36.040Z,101729.00
2022-08-30T05:49:06.166Z,101735.00
2022-08-30T05:51:42.999Z,101738.00
2022-08-30T05:54:13.743Z,101738.00
2022-08-30T05:56:45.643Z,101741.00
2022-08-30T05:59:14.804Z,101737.00
2022-08-30T06:01:46.387Z,101733.00
2022-08-30T06:04:14.865Z,101732.00
2022-08-30T06:06:44.436Z,101737.00
2022-08-30T06:09:13.925Z,101734.00
2022-08-30T06:11:41.809Z,101730.00
2022-08-30T06:14:12.053Z,101730.00
2022-08-30T06:16:41.165Z,101736.00
2022-08-30T06:19:11.202Z,101735.00
2022-08-30T06:21:40.598Z,101731.00
2022-08-30T06:24:11.298Z,101727.00
2022-08-30T06:26:43.286Z,101726.00
2022-08-30T06:29:14.476Z,101736.00
2022-08-30T06:31:44.632Z,101738.00
2022-08-30T06:34:12.233Z,101729.00
2022-08-30T06:36:51.757Z,101733.00
2022-08-30T06:39:19.041Z,101729.00
2022-08-30T06:41:46.356Z,101730.00
2022-08-30T06:44:32.624Z,101740.00
2022-08-30T06:47:00.242Z,101730.00
2022-08-30T06:50:05.689Z,101729.00
2022-08-30T06:52:32.982Z,101726.00
2022-08-30T06:55:00.188Z,101722.00
2022-08-30T06:57:46.972Z,101726.00
2022-08-30T07:01:11.602Z,101724.00
2022-08-30T07:03:39.070Z,101728.00
2022-08-30T07:06:10.587Z,101726.00
2022-08-30T07:08:39.611Z,101729.00
2022-08-30T07:11:08.324Z,101727.00
2022-08-30T07:13:37.727Z,101733.00
2022-08-30T07:16:13.639Z,101728.00
2022-08-30T07:18:56.724Z,101725.00
2022-08-30T07:21:32.828Z,101733.00
2022-08-30T07:24:01.500Z,101740.00
2022-08-30T07:26:43.638Z,101724.00
2022-08-30T07:29:11.305Z,101737.00
2022-08-30T07:31:38.674Z,101734.00
2022-08-30T07:34:07.534Z,101733.00
2022-08-30T07:36:38.357Z,101732.00
2022-08-30T07:39:07.937Z,101734.00
2022-08-30T07:41:39.157Z,101732.00
2022-08-30T07:44:08.818Z,101730.00
2022-08-30T07:46:39.104Z,101736.00
2022-08-30T07:49:11.019Z,101730.00
2022-08-30T07:51:39.630Z,101746.00
2022-08-30T07:54:07.425Z,101749.00
2022-08-30T07:56:35.474Z,101743.00
2022-08-30T07:59:03.084Z,101737.00
2022-08-30T08:01:30.968Z,101738.00
2022-08-30T08:03:58.418Z,101745.00
2022-08-30T08:06:27.926Z,101746.00
2022-08-30T08:09:02.727Z,101739.00
2022-08-30T08:11:33.875Z,101739.00
2022-08-30T08:14:02.847Z,101744.00
2022-08-30T08:16:33.075Z,101738.00
2022-08-30T08:19:01.045Z,101745.00
2022-08-30T08:21:28.751Z,101738.00
2022-08-30T08:23:56.027Z,101728.00
2022-08-30T08:26:24.053Z,101747.00
2022-08-30T08:28:51.415Z,101743.00
2022-08-30T08:31:33.108Z,101749.00
2022-08-30T08:34:06.178Z,101750.00
2022-08-30T08:36:35.749Z,101750.00
2022-08-30T08:39:06.547Z,101755.00
2022-08-30T08:42:20.464Z,101766.00
2022-08-30T08:45:13.454Z,101757.00
2022-08-30T08:48:08.135Z,101753.00
2022-08-30T08:50:36.502Z,101749.00
2022-08-30T08:53:45.828Z,101752.00
2022-08-30T08:56:19.365Z,101748.00
2022-08-30T08:58:53.532Z,101752.00
2022-08-30T09:01:25.393Z,101751.00
2022-08-30T09:03:52.974Z,101749.00
2022-08-30T09:06:45.183Z,101745.00
2022-08-30T09:09:14.106Z,101749.00
2022-08-30T09:11:44.369Z,101754.00
2022-08-30T09:14:20.794Z,101732.00
2022-08-30T09:17:10.891Z,101747.00
2022-08-30T09:19:46.432Z,101750.00
2022-08-30T09:22:40.670Z,101747.00
2022-08-30T09:25:27.729Z,101752.00
2022-08-30T09:28:10.899Z,101749.00
2022-08-30T09:30:39.495Z,101743.00
2022-08-30T09:33:20.359Z,101745.00
2022-08-30T09:35:54.147Z,101745.00
2022-08-30T09:38:32.863Z,101732.00
2022-08-30T09:41:22.924Z,101745.00
2022-08-30T09:44:09.721Z,101739.00
2022-08-30T09:46:56.225Z,101731.00
2022-08-30T09:49:47.471Z,101737.00
2022-08-30T09:52:39.341Z,101736.00
2022-08-30T09:55:47.970Z,101742.00
2022-08-30T09:58:39.346Z,101729.00
2022-08-30T10:01:21.210Z,101731.00
2022-08-30T10:04:08.604Z,101726.00
2022-08-30T10:07:29.101Z,101724.00
2022-08-30T10:10:06.108Z,101740.00
2022-08-30T10:12:43.451Z,101730.00
2022-08-30T10:15:43.804Z,101730.00
2022-08-30T10:18:25.415Z,101724.00
2022-08-30T10:21:26.590Z,101734.00
2022-08-30T10:24:02.555Z,101730.00
2022-08-30T10:26:35.847Z,101735.00
2022-08-30T10:29:13.391Z,101725.00
2022-08-30T10:32:29.299Z,101725.00
2022-08-30T10:35:19.357Z,101727.00
2022-08-30T10:38:10.728Z,101713.00
2022-08-30T10:41:03.461Z,101729.00
2022-08-30T10:44:01.686Z,101730.00
2022-08-30T10:46:40.539Z,101734.00
2022-08-30T10:49:21.501Z,101730.00
2022-08-30T10:52:12.453Z,101721.00
2022-08-30T10:54:50.628Z,101721.00
2022-08-30T10:57:20.093Z,101730.00
2022-08-30T11:00:08.504Z,101726.00
2022-08-30T11:03:00.190Z,101721.00
2022-08-30T11:06:04.491Z,101716.00
2022-08-30T11:08:58.731Z,101719.00
2022-08-30T11:11:55.998Z,101726.00
2022-08-30T11:14:25.704Z,101712.00
2022-08-30T11:16:59.324Z,101712.00
2022-08-30T11:19:41.738Z,101711.00
2022-08-30T11:22:25.608Z,101716.00
2022-08-30T11:28:45.798Z,101718.00
2022-08-30T11:31:40.716Z,101718.00
2022-08-30T11:34:11.366Z,101718.00
2022-08-30T11:36:46.197Z,101715.00
2022-08-30T11:39:54.177Z,101705.00
2022-08-30T11:45:52.733Z,101715.00
2022-08-30T11:48:54.590Z,101703.00
2022-08-30T11:55:10.049Z,101698.00
2022-08-30T11:58:04.976Z,101694.00
2022-08-30T12:00:40.722Z,101688.00
2022-08-30T12:03:19.962Z,101689.00
2022-08-30T12:05:52.451Z,101687.00
2022-08-30T12:08:28.977Z,101685.00
2022-08-30T12:11:00.281Z,101684.00
2022-08-30T12:13:37.742Z,101687.00
2022-08-30T12:16:34.883Z,101695.00
2022-08-30T12:19:20.914Z,101681.00
2022-08-30T12:22:05.897Z,101686.00
2022-08-30T12:24:44.331Z,101686.00
2022-08-30T12:27:33.645Z,101687.00
2022-08-30T12:30:08.509Z,101688.00
2022-08-30T12:32:50.736Z,101684.00
2022-08-30T12:35:28.222Z,101682.00
2022-08-30T12:38:07.226Z,101680.00
2022-08-30T12:40:35.328Z,101684.00
2022-08-30T12:43:17.734Z,101682.00
2022-08-30T12:45:50.792Z,101686.00
2022-08-30T12:48:20.281Z,101680.00
2022-08-30T12:50:54.758Z,101688.00
2022-08-30T12:53:34.415Z,101683.00
2022-08-30T12:56:13.609Z,101676.00
2022-08-30T12:58:52.074Z,101663.00
2022-08-30T13:01:31.178Z,101673.00
2022-08-30T13:04:19.434Z,101675.00
2022-08-30T13:06:57.885Z,101666.00
2022-08-30T13:09:38.365Z,101669.00
2022-08-30T13:12:20.553Z,101653.00
2022-08-30T13:14:52.411Z,101660.00
2022-08-30T13:17:20.390Z,101665.00
2022-08-30T13:20:07.554Z,101666.00
2022-08-30T13:22:38.914Z,101656.00
2022-08-30T13:25:09.020Z,101655.00
2022-08-30T13:27:39.086Z,101656.00
2022-08-30T13:30:14.758Z,101661.00
2022-08-30T13:33:02.266Z,101653.00
2022-08-30T13:35:31.625Z,101659.00
2022-08-30T13:38:02.513Z,101655.00
2022-08-30T13:40:30.023Z,101641.00
2022-08-30T13:42:57.350Z,101653.00
2022-08-30T13:45:41.591Z,101646.00
2022-08-30T13:48:11.717Z,101637.00
2022-08-30T13:50:40.105Z,101648.00
2022-08-30T13:53:09.466Z,101629.00
2022-08-30T13:55:44.501Z,101636.00
2022-08-30T13:58:13.293Z,101630.00
2022-08-30T14:00:41.282Z,101627.00
2022-08-30T14:03:12.434Z,101615.00
2022-08-30T14:06:04.904Z,101617.00
2022-08-30T14:08:48.978Z,101609.00
2022-08-30T14:11:22.991Z,101607.00
2022-08-30T14:16:45.368Z,101605.00
2022-08-30T14:19:15.499Z,101605.00
2022-08-30T14:21:46.601Z,101613.00
2022-08-30T14:24:19.909Z,101614.00
2022-08-30T14:26:55.974Z,101618.00
2022-08-30T14:29:30.087Z,101600.00
2022-08-30T14:32:16.118Z,101607.00
2022-08-30T14:34:43.404Z,101608.00
2022-08-30T14:37:14.601Z,101601.00
2022-08-30T14:39:42.409Z,101598.00
2022-08-30T14:42:11.906Z,101595.00
2022-08-30T14:44:56.327Z,101591.00
2022-08-30T14:47:29.788Z,101601.00
2022-08-30T14:50:00.939Z,101602.00
2022-08-30T14:52:30.360Z,101599.00
2022-08-30T14:55:08.509Z,101599.00
2022-08-30T14:57:37.473Z,101586.00
2022-08-30T15:00:11.241Z,101587.00
2022-08-30T15:02:38.715Z,101591.00
2022-08-30T15:05:07.086Z,101594.00
2022-08-30T15:07:36.454Z,101586.00
2022-08-30T15:10:07.339Z,101585.00
2022-08-30T15:12:37.580Z,101592.00
2022-08-30T15:15:06.344Z,101587.00
2022-08-30T15:17:33.566Z,101589.00
2022-08-30T15:20:00.862Z,101570.00
2022-08-30T15:22:28.265Z,101574.00
2022-08-30T15:24:56.129Z,101580.00
2022-08-30T15:27:24.211Z,101577.00
2022-08-30T15:29:51.455Z,101578.00
2022-08-30T15:32:18.659Z,101580.00
2022-08-30T15:34:45.922Z,101581.00
2022-08-30T15:37:23.654Z,101578.00
2022-08-30T15:39:53.197Z,101578.00
2022-08-30T15:42:20.687Z,101563.00
2022-08-30T15:44:52.933Z,101562.00
2022-08-30T15:47:23.584Z,101564.00
2022-08-30T15:50:05.851Z,101554.00
2022-08-30T15:52:35.714Z,101569.00
2022-08-30T15:55:03.316Z,101555.00
2022-08-30T15:57:30.938Z,101555.00
2022-08-30T15:59:58.504Z,101548.00
2022-08-30T16:02:27.847Z,101550.00
2022-08-30T16:04:55.394Z,101552.00
2022-08-30T16:07:22.602Z,101542.00
2022-08-30T16:09:50.036Z,101553.00
2022-08-30T16:12:23.685Z,101541.00
2022-08-30T16:14:52.037Z,101543.00
2022-08-30T16:17:19.378Z,101549.00
2022-08-30T16:19:46.651Z,101546.00
2022-08-30T16:22:15.859Z,101549.00
2022-08-30T16:24:54.616Z,101533.00
2022-08-30T16:27:23.918Z,101543.00
2022-08-30T16:29:53.261Z,101543.00
2022-08-30T16:32:21.116Z,101549.00
2022-08-30T16:34:48.325Z,101541.00
2022-08-30T16:37:15.728Z,101539.00
2022-08-30T16:39:45.861Z,101548.00
2022-08-30T16:42:21.327Z,101556.00
2022-08-30T16:44:50.035Z,101561.00
2022-08-30T16:47:17.847Z,101549.00
2022-08-30T16:49:45.047Z,101554.00
2022-08-30T16:52:12.304Z,101556.00
2022-08-30T16:54:39.538Z,101553.00
2022-08-30T16:57:06.835Z,101562.00
2022-08-30T16:59:34.409Z,101552.00
2022-08-30T17:02:02.473Z,101557.00
2022-08-30T17:04:30.896Z,101561.00
2022-08-30T17:06:58.831Z,101575.00
2022-08-30T17:09:26.314Z,101563.00
2022-08-30T17:11:54.233Z,101557.00
2022-08-30T17:14:28.136Z,101560.00
2022-08-30T17:17:00.492Z,101564.00
2022-08-30T17:19:28.770Z,101567.00
2022-08-30T17:21:58.206Z,101565.00
2022-08-30T17:24:26.804Z,101555.00
2022-08-30T17:26:58.386Z,101559.00
2022-08-30T17:29:25.965Z,101565.00
2022-08-30T17:31:57.634Z,101573.00
2022-08-30T17:34:27.672Z,101573.00
2022-08-30T17:36:59.201Z,101568.00
2022-08-30T17:39:30.860Z,101589.00
2022-08-30T17:41:59.446Z,101590.00
2022-08-30T17:44:42.444Z,101590.00
2022-08-30T17:47:13.065Z,101597.00
2022-08-30T17:49:40.299Z,101600.00
2022-08-30T17:52:07.909Z,101594.00
2022-08-30T17:54:39.211Z,101595.00
2022-08-30T17:57:11.572Z,101608.00
2022-08-30T17:59:40.466Z,101608.00
2022-08-30T18:02:11.346Z,101606.00
2022-08-30T18:04:41.923Z,101625.00
2022-08-30T18:07:12.087Z,101622.00
2022-08-30T18:09:41.200Z,101625.00
2022-08-30T18:12:10.443Z,101628.00
2022-08-30T18:14:39.349Z,101640.00
2022-08-30T18:17:07.849Z,101641.00
2022-08-30T18:19:36.676Z,101638.00
2022-08-30T18:22:15.109Z,101631.00
2022-08-30T18:24:42.637Z,101634.00
2022-08-30T18:27:09.935Z,101634.00
2022-08-30T18:29:39.182Z,101637.00
2022-08-30T18:32:09.055Z,101643.00
2022-08-30T18:34:36.626Z,101640.00
2022-08-30T18:37:03.990Z,101648.00
2022-08-30T18:39:34.439Z,101645.00
2022-08-30T18:42:04.398Z,101642.00
2022-08-30T18:44:34.886Z,101648.00
2022-08-30T18:47:05.708Z,101651.00
2022-08-30T18:49:35.934Z,101647.00
2022-08-30T18:52:06.813Z,101658.00
2022-08-30T18:54:39.070Z,101661.00
2022-08-30T18:57:07.778Z,101661.00
2022-08-30T18:59:38.482Z,101671.00
2022-08-30T19:02:10.715Z,101671.00
2022-08-30T19:04:43.387Z,101670.00
2022-08-30T19:07:15.545Z,101669.00
2022-08-30T19:09:43.833Z,101672.00
2022-08-30T19:12:12.920Z,101673.00
2022-08-30T19:14:41.113Z,101670.00
2022-08-30T19:17:08.508Z,101677.00
2022-08-30T19:19:45.150Z,101677.00
2022-08-30T19:22:16.539Z,101679.00
2022-08-30T19:24:43.695Z,101663.00
2022-08-30T19:27:10.812Z,101673.00
2022-08-30T19:29:38.778Z,101659.00
2022-08-30T19:32:06.089Z,101670.00
2022-08-30T19:34:33.367Z,101655.00
2022-08-30T19:37:01.331Z,101667.00
2022-08-30T19:39:29.386Z,101666.00
2022-08-30T19:41:56.781Z,101664.00
2022-08-30T19:44:25.701Z,101674.00
2022-08-30T19:46:53.817Z,101667.00
2022-08-30T19:49:23.664Z,101673.00
2022-08-30T19:51:51.114Z,101681.00
2022-08-30T19:54:19.659Z,101675.00
2022-08-30T19:56:48.099Z,101668.00
2022-08-30T19:59:18.210Z,101678.00
2022-08-30T20:01:46.619Z,101676.00
2022-08-30T20:04:14.665Z,101667.00
2022-08-30T20:06:43.178Z,101676.00
2022-08-30T20:09:11.273Z,101662.00
2022-08-30T20:11:42.354Z,101667.00
2022-08-30T20:14:10.900Z,101678.00
2022-08-30T20:16:41.765Z,101670.00
2022-08-30T20:19:12.037Z,101670.00
2022-08-30T20:21:39.396Z,101682.00
2022-08-30T20:24:09.806Z,101679.00
2022-08-30T20:26:38.505Z,101677.00
2022-08-30T20:29:07.634Z,101680.00
2022-08-30T20:32:50.215Z,101682.00
2022-08-30T20:35:55.047Z,101685.00
2022-08-30T20:38:22.610Z,101680.00
2022-08-30T20:40:57.963Z,101681.00
2022-08-30T20:43:29.700Z,101678.00
2022-08-30T20:45:57.657Z,101686.00
2022-08-30T20:48:28.872Z,101679.00
2022-08-30T20:50:56.305Z,101688.00
2022-08-30T20:53:23.751Z,101687.00
2022-08-30T20:55:50.858Z,101687.00
2022-08-30T20:58:18.297Z,101686.00
2022-08-30T21:00:51.732Z,101689.00
2022-08-30T21:03:27.628Z,101681.00
2022-08-30T21:05:57.022Z,101690.00
2022-08-30T21:08:25.230Z,101683.00
2022-08-30T21:10:53.536Z,101687.00
2022-08-30T21:13:21.755Z,101690.00
2022-08-30T21:16:00.201Z,101682.00
2022-08-30T21:18:33.238Z,101684.00
2022-08-30T21:21:13.931Z,101688.00
2022-08-30T21:23:42.025Z,101692.00
2022-08-30T21:26:11.022Z,101690.00
2022-08-30T21:28:38.967Z,101698.00
2022-08-30T21:31:17.141Z,101693.00
2022-08-30T21:33:44.826Z,101699.00
2022-08-30T21:36:30.896Z,101696.00
2022-08-30T21:39:00.544Z,101698.00
2022-08-30T21:41:30.582Z,101693.00
2022-08-30T21:44:04.679Z,101696.00
2022-08-30T21:46:33.551Z,101704.00
2022-08-30T21:49:04.739Z,101706.00
2022-08-30T21:51:41.056Z,101707.00
2022-08-30T21:54:11.087Z,101712.00
2022-08-30T21:56:40.873Z,101715.00
2022-08-30T21:59:10.232Z,101720.00
2022-08-30T22:01:39.035Z,101722.00
2022-08-30T22:04:10.375Z,101712.00
2022-08-30T22:06:41.794Z,101722.00
2022-08-30T22:09:13.741Z,101713.00
2022-08-30T22:11:43.621Z,101734.00
2022-08-30T22:14:12.573Z,101733.00
2022-08-30T22:16:41.678Z,101742.00
2022-08-30T22:19:09.341Z,101740.00
2022-08-30T22:21:38.846Z,101736.00
2022-08-30T22:24:06.282Z,101731.00
2022-08-30T22:26:35.562Z,101723.00
2022-08-30T22:29:05.452Z,101727.00
2022-08-30T22:31:32.994Z,101733.00
2022-08-30T22:34:00.505Z,101734.00
2022-08-30T22:36:33.082Z,101739.00
2022-08-30T22:39:01.977Z,101737.00
2022-08-30T22:41:34.137Z,101748.00
2022-08-30T22:44:02.595Z,101738.00
2022-08-30T22:46:33.954Z,101747.00
2022-08-30T22:49:07.416Z,101739.00
2022-08-30T22:51:35.545Z,101736.00
2022-08-30T22:54:05.135Z,101742.00
2022-08-30T22:56:35.860Z,101746.00
2022-08-30T22:59:22.798Z,101739.00
2022-08-30T23:01:59.685Z,101747.00
2022-08-30T23:04:27.013Z,101737.00
2022-08-30T23:06:54.372Z,101745.00
2022-08-30T23:09:21.488Z,101740.00
2022-08-30T23:11:50.777Z,101729.00
2022-08-30T23:14:37.763Z,101732.00
2022-08-30T23:17:04.990Z,101731.00
2022-08-30T23:19:32.249Z,101718.00
2022-08-30T23:21:59.632Z,101726.00
2022-08-30T23:24:48.871Z,101734.00
2022-08-30T23:27:35.059Z,101727.00
2022-08-30T23:30:20.842Z,101731.00
2022-08-30T23:33:06.565Z,101736.00
2022-08-30T23:35:52.358Z,101729.00
2022-08-30T23:38:38.183Z,101734.00
2022-08-30T23:41:24.043Z,101737.00
2022-08-30T23:44:19.636Z,101738.00
2022-08-30T23:47:05.288Z,101735.00
2022-08-30T23:49:51.021Z,101734.00
2022-08-30T23:52:36.788Z,101732.00
2022-08-30T23:55:24.897Z,101726.00
2022-08-30T23:58:10.712Z,101727.00
